Other Surface Observations
Issued by NWS Missoula, MT

Home | Current Version | Previous Version | Text Only | Print | Product List | Glossary On
Versions: 1 2 3 4 5 6 7 8 9 10 11 12 13 14 15 16 17 18 19 20 21 22 23 24 25 26 27 28 29 30 31 32 33 34 35 36 37 38 39 40 41 42 43 44 45 46 47 48 49 50
000
SXUS55 KMSO 031703
OSOMSO
MONTANA AWOS SUMMARY
NATIONAL WEATHER SERVICE MISSOULA MT
1003 AM MST TUE MAR 3 2015

Montana AWOS Reports

LAUREL      |K6S8 031655Z AUTO 28006KT 40SM M11/M21 A3008 RMK AO1 T11101210
ROUNDUP     |KRPX 031655Z AUTO 30010KT 40SM M10/M25 A3002 RMK AO1 T10991249
SCOBEY      |K9S2 031655Z AUTO 30024G28KT 25SM M16/M24 A3006 RMK AO1 T11551243
TWIN BRIDGES|K7S1 031655Z AUTO 33014G18KT 40SM M11/M21 A3000 RMK AO1 T11101205




USA.gov is the U.S. government's official web portal to all federal, state and local government web resources and services.